sensor_id;sensor_type;location;lat;lon;timestamp;P1;durP1;ratioP1;P2;durP2;ratioP2
22774;SDS011;11554;51.106;3.684;2022-12-13T00:00:00;40.70;;;18.40;;
22774;SDS011;11554;51.106;3.684;2022-12-13T00:05:00;37.40;;;17.80;;
22774;SDS011;11554;51.106;3.684;2022-12-13T00:10:01;37.40;;;17.80;;
22774;SDS011;11554;51.106;3.684;2022-12-13T00:15:00;38.20;;;18.30;;
22774;SDS011;11554;51.106;3.684;2022-12-13T00:20:00;38.20;;;18.30;;
22774;SDS011;11554;51.106;3.684;2022-12-13T00:25:00;41.10;;;18.30;;
22774;SDS011;11554;51.106;3.684;2022-12-13T00:30:00;41.10;;;18.30;;
22774;SDS011;11554;51.106;3.684;2022-12-13T00:35:00;36.90;;;19.10;;
22774;SDS011;11554;51.106;3.684;2022-12-13T00:40:00;36.90;;;19.10;;
22774;SDS011;11554;51.106;3.684;2022-12-13T00:45:00;35.00;;;17.10;;
22774;SDS011;11554;51.106;3.684;2022-12-13T00:50:00;35.00;;;17.10;;
22774;SDS011;11554;51.106;3.684;2022-12-13T00:55:00;41.20;;;19.60;;
22774;SDS011;11554;51.106;3.684;2022-12-13T01:00:00;41.20;;;19.60;;
22774;SDS011;11554;51.106;3.684;2022-12-13T01:05:00;44.70;;;19.60;;
22774;SDS011;11554;51.106;3.684;2022-12-13T01:10:00;44.70;;;19.60;;
22774;SDS011;11554;51.106;3.684;2022-12-13T01:15:00;38.90;;;19.40;;
22774;SDS011;11554;51.106;3.684;2022-12-13T01:20:00;38.90;;;19.40;;
22774;SDS011;11554;51.106;3.684;2022-12-13T01:25:00;36.70;;;17.10;;
22774;SDS011;11554;51.106;3.684;2022-12-13T01:30:00;36.70;;;17.10;;
22774;SDS011;11554;51.106;3.684;2022-12-13T01:35:00;36.80;;;17.50;;
22774;SDS011;11554;51.106;3.684;2022-12-13T01:40:00;36.80;;;17.50;;
22774;SDS011;11554;51.106;3.684;2022-12-13T01:45:04;36.20;;;17.40;;
22774;SDS011;11554;51.106;3.684;2022-12-13T01:50:03;36.20;;;17.40;;
22774;SDS011;11554;51.106;3.684;2022-12-13T01:55:02;33.40;;;15.80;;
22774;SDS011;11554;51.106;3.684;2022-12-13T02:00:01;33.40;;;15.80;;
22774;SDS011;11554;51.106;3.684;2022-12-13T02:05:05;32.90;;;17.00;;
22774;SDS011;11554;51.106;3.684;2022-12-13T02:10:03;32.90;;;17.00;;
22774;SDS011;11554;51.106;3.684;2022-12-13T02:15:04;33.90;;;16.50;;
22774;SDS011;11554;51.106;3.684;2022-12-13T02:25:13;34.60;;;15.90;;
22774;SDS011;11554;51.106;3.684;2022-12-13T02:30:19;34.60;;;15.90;;
22774;SDS011;11554;51.106;3.684;2022-12-13T02:35:04;33.30;;;17.00;;
22774;SDS011;11554;51.106;3.684;2022-12-13T02:40:06;33.30;;;17.00;;
22774;SDS011;11554;51.106;3.684;2022-12-13T02:45:05;30.20;;;16.10;;
22774;SDS011;11554;51.106;3.684;2022-12-13T02:50:03;30.20;;;16.10;;
22774;SDS011;11554;51.106;3.684;2022-12-13T02:55:05;30.70;;;14.40;;
22774;SDS011;11554;51.106;3.684;2022-12-13T03:00:04;30.70;;;14.40;;
22774;SDS011;11554;51.106;3.684;2022-12-13T03:05:04;31.90;;;14.80;;
22774;SDS011;11554;51.106;3.684;2022-12-13T03:10:04;31.90;;;14.80;;
22774;SDS011;11554;51.106;3.684;2022-12-13T03:15:08;34.10;;;14.60;;
22774;SDS011;11554;51.106;3.684;2022-12-13T03:20:00;34.10;;;14.60;;
22774;SDS011;11554;51.106;3.684;2022-12-13T03:25:01;28.10;;;14.20;;
22774;SDS011;11554;51.106;3.684;2022-12-13T03:30:00;28.10;;;14.20;;
22774;SDS011;11554;51.106;3.684;2022-12-13T03:35:00;32.20;;;15.50;;
22774;SDS011;11554;51.106;3.684;2022-12-13T03:40:00;32.20;;;15.50;;
22774;SDS011;11554;51.106;3.684;2022-12-13T03:45:00;32.70;;;15.00;;
22774;SDS011;11554;51.106;3.684;2022-12-13T03:50:00;32.70;;;15.00;;
22774;SDS011;11554;51.106;3.684;2022-12-13T03:55:00;30.90;;;14.60;;
22774;SDS011;11554;51.106;3.684;2022-12-13T04:00:00;30.90;;;14.60;;
22774;SDS011;11554;51.106;3.684;2022-12-13T04:05:00;29.00;;;14.30;;
22774;SDS011;11554;51.106;3.684;2022-12-13T04:10:00;29.00;;;14.30;;
22774;SDS011;11554;51.106;3.684;2022-12-13T04:15:00;36.00;;;16.40;;
22774;SDS011;11554;51.106;3.684;2022-12-13T04:20:00;36.00;;;16.40;;
22774;SDS011;11554;51.106;3.684;2022-12-13T04:25:00;28.80;;;13.30;;
22774;SDS011;11554;51.106;3.684;2022-12-13T04:30:00;28.80;;;13.30;;
22774;SDS011;11554;51.106;3.684;2022-12-13T04:35:00;29.40;;;15.20;;
22774;SDS011;11554;51.106;3.684;2022-12-13T04:40:00;29.40;;;15.20;;
22774;SDS011;11554;51.106;3.684;2022-12-13T04:45:00;30.20;;;14.90;;
22774;SDS011;11554;51.106;3.684;2022-12-13T04:50:01;30.20;;;14.90;;
22774;SDS011;11554;51.106;3.684;2022-12-13T04:55:00;36.00;;;16.40;;
22774;SDS011;11554;51.106;3.684;2022-12-13T05:00:00;36.00;;;16.40;;
22774;SDS011;11554;51.106;3.684;2022-12-13T05:05:00;31.50;;;16.70;;
22774;SDS011;11554;51.106;3.684;2022-12-13T05:10:00;31.50;;;16.70;;
22774;SDS011;11554;51.106;3.684;2022-12-13T05:15:00;37.40;;;18.90;;
22774;SDS011;11554;51.106;3.684;2022-12-13T05:20:00;37.40;;;18.90;;
22774;SDS011;11554;51.106;3.684;2022-12-13T05:25:00;30.50;;;16.30;;
22774;SDS011;11554;51.106;3.684;2022-12-13T05:30:00;30.50;;;16.30;;
22774;SDS011;11554;51.106;3.684;2022-12-13T05:35:01;31.20;;;15.10;;
22774;SDS011;11554;51.106;3.684;2022-12-13T05:40:00;31.20;;;15.10;;
22774;SDS011;11554;51.106;3.684;2022-12-13T05:45:00;29.00;;;15.60;;
22774;SDS011;11554;51.106;3.684;2022-12-13T05:50:00;29.00;;;15.60;;
22774;SDS011;11554;51.106;3.684;2022-12-13T05:55:00;30.40;;;14.30;;
22774;SDS011;11554;51.106;3.684;2022-12-13T06:00:00;30.40;;;14.30;;
22774;SDS011;11554;51.106;3.684;2022-12-13T06:05:00;26.70;;;14.60;;
22774;SDS011;11554;51.106;3.684;2022-12-13T06:10:00;26.70;;;14.60;;
22774;SDS011;11554;51.106;3.684;2022-12-13T06:15:00;31.10;;;14.10;;
22774;SDS011;11554;51.106;3.684;2022-12-13T06:20:01;31.10;;;14.10;;
22774;SDS011;11554;51.106;3.684;2022-12-13T06:25:00;30.20;;;15.50;;
22774;SDS011;11554;51.106;3.684;2022-12-13T06:30:00;30.20;;;15.50;;
22774;SDS011;11554;51.106;3.684;2022-12-13T06:35:00;24.40;;;13.10;;
22774;SDS011;11554;51.106;3.684;2022-12-13T06:40:00;24.40;;;13.10;;
22774;SDS011;11554;51.106;3.684;2022-12-13T06:45:00;26.60;;;13.40;;
22774;SDS011;11554;51.106;3.684;2022-12-13T06:50:00;26.60;;;13.40;;
22774;SDS011;11554;51.106;3.684;2022-12-13T06:55:00;28.80;;;13.90;;
22774;SDS011;11554;51.106;3.684;2022-12-13T07:00:00;28.80;;;13.90;;
22774;SDS011;11554;51.106;3.684;2022-12-13T07:05:00;25.50;;;12.70;;
22774;SDS011;11554;51.106;3.684;2022-12-13T07:10:00;25.50;;;12.70;;
22774;SDS011;11554;51.106;3.684;2022-12-13T07:15:00;25.40;;;13.70;;
22774;SDS011;11554;51.106;3.684;2022-12-13T07:20:03;25.40;;;13.70;;
22774;SDS011;11554;51.106;3.684;2022-12-13T07:25:00;27.00;;;12.90;;
22774;SDS011;11554;51.106;3.684;2022-12-13T07:30:01;27.00;;;12.90;;
22774;SDS011;11554;51.106;3.684;2022-12-13T07:35:00;29.90;;;13.40;;
22774;SDS011;11554;51.106;3.684;2022-12-13T07:40:00;29.90;;;13.40;;
22774;SDS011;11554;51.106;3.684;2022-12-13T07:45:01;30.70;;;15.30;;
22774;SDS011;11554;51.106;3.684;2022-12-13T07:50:00;30.70;;;15.30;;
22774;SDS011;11554;51.106;3.684;2022-12-13T07:55:00;26.90;;;14.50;;
22774;SDS011;11554;51.106;3.684;2022-12-13T08:00:00;26.90;;;14.50;;
22774;SDS011;11554;51.106;3.684;2022-12-13T08:05:00;32.60;;;16.20;;
22774;SDS011;11554;51.106;3.684;2022-12-13T08:10:00;32.60;;;16.20;;
22774;SDS011;11554;51.106;3.684;2022-12-13T08:15:00;38.30;;;18.20;;
22774;SDS011;11554;51.106;3.684;2022-12-13T08:20:00;38.30;;;18.20;;
22774;SDS011;11554;51.106;3.684;2022-12-13T08:25:00;31.90;;;16.20;;
22774;SDS011;11554;51.106;3.684;2022-12-13T08:30:00;31.90;;;16.20;;
22774;SDS011;11554;51.106;3.684;2022-12-13T08:35:00;35.30;;;16.90;;
22774;SDS011;11554;51.106;3.684;2022-12-13T08:40:00;35.30;;;16.90;;
22774;SDS011;11554;51.106;3.684;2022-12-13T08:45:00;106.60;;;38.90;;
22774;SDS011;11554;51.106;3.684;2022-12-13T08:50:00;106.60;;;38.90;;
22774;SDS011;11554;51.106;3.684;2022-12-13T08:55:00;58.10;;;30.10;;
22774;SDS011;11554;51.106;3.684;2022-12-13T09:00:01;58.10;;;30.10;;
22774;SDS011;11554;51.106;3.684;2022-12-13T09:05:00;68.70;;;32.20;;
22774;SDS011;11554;51.106;3.684;2022-12-13T09:10:00;68.70;;;32.20;;
22774;SDS011;11554;51.106;3.684;2022-12-13T09:15:00;47.20;;;26.60;;
22774;SDS011;11554;51.106;3.684;2022-12-13T09:20:00;47.20;;;26.60;;
22774;SDS011;11554;51.106;3.684;2022-12-13T09:25:00;44.20;;;23.70;;
22774;SDS011;11554;51.106;3.684;2022-12-13T09:30:00;44.20;;;23.70;;
22774;SDS011;11554;51.106;3.684;2022-12-13T09:35:00;38.90;;;22.60;;
22774;SDS011;11554;51.106;3.684;2022-12-13T09:40:00;38.90;;;22.60;;
22774;SDS011;11554;51.106;3.684;2022-12-13T09:45:03;37.20;;;21.20;;
22774;SDS011;11554;51.106;3.684;2022-12-13T09:50:04;37.60;;;22.30;;
22774;SDS011;11554;51.106;3.684;2022-12-13T09:55:00;37.60;;;22.30;;
22774;SDS011;11554;51.106;3.684;2022-12-13T10:00:03;37.80;;;21.80;;
22774;SDS011;11554;51.106;3.684;2022-12-13T10:05:13;37.80;;;21.80;;
22774;SDS011;11554;51.106;3.684;2022-12-13T10:10:00;60.20;;;32.60;;
22774;SDS011;11554;51.106;3.684;2022-12-13T10:15:02;60.20;;;32.60;;
22774;SDS011;11554;51.106;3.684;2022-12-13T10:20:01;34.70;;;20.10;;
22774;SDS011;11554;51.106;3.684;2022-12-13T10:25:02;34.70;;;20.10;;
22774;SDS011;11554;51.106;3.684;2022-12-13T10:30:05;37.80;;;21.90;;
22774;SDS011;11554;51.106;3.684;2022-12-13T10:35:11;37.80;;;21.90;;
22774;SDS011;11554;51.106;3.684;2022-12-13T10:40:00;32.00;;;19.00;;
22774;SDS011;11554;51.106;3.684;2022-12-13T10:45:13;32.00;;;19.00;;
22774;SDS011;11554;51.106;3.684;2022-12-13T10:50:01;41.90;;;24.10;;
22774;SDS011;11554;51.106;3.684;2022-12-13T10:55:03;41.90;;;24.10;;
22774;SDS011;11554;51.106;3.684;2022-12-13T11:00:01;38.00;;;19.60;;
22774;SDS011;11554;51.106;3.684;2022-12-13T11:10:20;35.60;;;21.40;;
22774;SDS011;11554;51.106;3.684;2022-12-13T11:15:03;35.60;;;21.40;;
22774;SDS011;11554;51.106;3.684;2022-12-13T11:20:04;32.10;;;19.30;;
22774;SDS011;11554;51.106;3.684;2022-12-13T11:25:03;32.10;;;19.30;;
22774;SDS011;11554;51.106;3.684;2022-12-13T11:30:09;28.00;;;16.50;;
22774;SDS011;11554;51.106;3.684;2022-12-13T11:35:06;28.00;;;16.50;;
22774;SDS011;11554;51.106;3.684;2022-12-13T11:40:04;53.90;;;26.50;;
22774;SDS011;11554;51.106;3.684;2022-12-13T11:45:08;53.90;;;26.50;;
22774;SDS011;11554;51.106;3.684;2022-12-13T11:50:03;30.20;;;16.60;;
22774;SDS011;11554;51.106;3.684;2022-12-13T11:55:04;30.20;;;16.60;;
22774;SDS011;11554;51.106;3.684;2022-12-13T12:00:04;34.00;;;20.40;;
22774;SDS011;11554;51.106;3.684;2022-12-13T12:05:05;34.00;;;20.40;;
22774;SDS011;11554;51.106;3.684;2022-12-13T12:10:14;26.70;;;15.90;;
22774;SDS011;11554;51.106;3.684;2022-12-13T12:15:05;26.70;;;15.90;;
22774;SDS011;11554;51.106;3.684;2022-12-13T12:20:01;26.60;;;14.70;;
22774;SDS011;11554;51.106;3.684;2022-12-13T12:25:13;26.60;;;14.70;;
22774;SDS011;11554;51.106;3.684;2022-12-13T12:30:07;27.20;;;14.90;;
22774;SDS011;11554;51.106;3.684;2022-12-13T12:35:22;27.20;;;14.90;;
22774;SDS011;11554;51.106;3.684;2022-12-13T12:45:14;31.60;;;16.50;;
22774;SDS011;11554;51.106;3.684;2022-12-13T12:50:16;33.50;;;19.00;;
22774;SDS011;11554;51.106;3.684;2022-12-13T12:55:09;33.50;;;19.00;;
22774;SDS011;11554;51.106;3.684;2022-12-13T13:00:04;29.90;;;15.30;;
22774;SDS011;11554;51.106;3.684;2022-12-13T13:05:09;29.90;;;15.30;;
22774;SDS011;11554;51.106;3.684;2022-12-13T13:10:01;31.90;;;17.40;;
22774;SDS011;11554;51.106;3.684;2022-12-13T13:20:11;25.90;;;15.50;;
22774;SDS011;11554;51.106;3.684;2022-12-13T13:30:04;31.20;;;17.40;;
22774;SDS011;11554;51.106;3.684;2022-12-13T13:40:02;26.20;;;15.90;;
22774;SDS011;11554;51.106;3.684;2022-12-13T13:45:18;26.20;;;15.90;;
22774;SDS011;11554;51.106;3.684;2022-12-13T13:50:15;67.20;;;32.50;;
22774;SDS011;11554;51.106;3.684;2022-12-13T13:55:16;67.20;;;32.50;;
22774;SDS011;11554;51.106;3.684;2022-12-13T14:00:10;116.10;;;47.70;;
22774;SDS011;11554;51.106;3.684;2022-12-13T14:10:12;28.20;;;16.00;;
22774;SDS011;11554;51.106;3.684;2022-12-13T14:20:17;23.20;;;12.80;;
22774;SDS011;11554;51.106;3.684;2022-12-13T14:30:01;26.30;;;14.50;;
22774;SDS011;11554;51.106;3.684;2022-12-13T14:35:00;26.30;;;14.50;;
22774;SDS011;11554;51.106;3.684;2022-12-13T14:40:11;31.00;;;19.40;;
22774;SDS011;11554;51.106;3.684;2022-12-13T14:45:12;31.00;;;19.40;;
22774;SDS011;11554;51.106;3.684;2022-12-13T14:50:00;44.40;;;24.90;;
22774;SDS011;11554;51.106;3.684;2022-12-13T14:55:01;44.40;;;24.90;;
22774;SDS011;11554;51.106;3.684;2022-12-13T15:05:03;25.30;;;15.30;;
22774;SDS011;11554;51.106;3.684;2022-12-13T15:10:05;24.70;;;15.00;;
22774;SDS011;11554;51.106;3.684;2022-12-13T15:15:02;24.70;;;15.00;;
22774;SDS011;11554;51.106;3.684;2022-12-13T15:20:07;29.60;;;18.00;;
22774;SDS011;11554;51.106;3.684;2022-12-13T15:25:00;29.60;;;18.00;;
22774;SDS011;11554;51.106;3.684;2022-12-13T15:30:00;26.50;;;14.90;;
22774;SDS011;11554;51.106;3.684;2022-12-13T15:35:13;26.50;;;14.90;;
22774;SDS011;11554;51.106;3.684;2022-12-13T15:40:06;30.90;;;17.30;;
22774;SDS011;11554;51.106;3.684;2022-12-13T15:45:02;30.90;;;17.30;;
22774;SDS011;11554;51.106;3.684;2022-12-13T15:50:02;30.40;;;15.50;;
22774;SDS011;11554;51.106;3.684;2022-12-13T16:00:04;29.70;;;16.30;;
22774;SDS011;11554;51.106;3.684;2022-12-13T16:05:05;29.70;;;16.30;;
22774;SDS011;11554;51.106;3.684;2022-12-13T16:10:00;33.40;;;18.10;;
22774;SDS011;11554;51.106;3.684;2022-12-13T16:15:11;33.40;;;18.10;;
22774;SDS011;11554;51.106;3.684;2022-12-13T16:20:00;38.50;;;20.30;;
22774;SDS011;11554;51.106;3.684;2022-12-13T16:25:00;38.50;;;20.30;;
22774;SDS011;11554;51.106;3.684;2022-12-13T16:30:00;33.30;;;17.90;;
22774;SDS011;11554;51.106;3.684;2022-12-13T16:35:00;33.30;;;17.90;;
22774;SDS011;11554;51.106;3.684;2022-12-13T16:40:14;35.20;;;19.00;;
22774;SDS011;11554;51.106;3.684;2022-12-13T16:45:00;35.20;;;19.00;;
22774;SDS011;11554;51.106;3.684;2022-12-13T16:50:05;48.00;;;25.00;;
22774;SDS011;11554;51.106;3.684;2022-12-13T16:55:00;48.00;;;25.00;;
22774;SDS011;11554;51.106;3.684;2022-12-13T17:00:01;40.50;;;20.50;;
22774;SDS011;11554;51.106;3.684;2022-12-13T17:05:00;40.50;;;20.50;;
22774;SDS011;11554;51.106;3.684;2022-12-13T17:10:00;37.70;;;20.20;;
22774;SDS011;11554;51.106;3.684;2022-12-13T17:15:00;37.70;;;20.20;;
22774;SDS011;11554;51.106;3.684;2022-12-13T17:20:00;36.20;;;19.60;;
22774;SDS011;11554;51.106;3.684;2022-12-13T17:25:00;36.20;;;19.60;;
22774;SDS011;11554;51.106;3.684;2022-12-13T17:30:00;33.50;;;18.30;;
22774;SDS011;11554;51.106;3.684;2022-12-13T17:35:00;33.50;;;18.30;;
22774;SDS011;11554;51.106;3.684;2022-12-13T17:40:00;39.40;;;18.20;;
22774;SDS011;11554;51.106;3.684;2022-12-13T17:45:00;39.40;;;18.20;;
22774;SDS011;11554;51.106;3.684;2022-12-13T17:50:00;35.40;;;20.10;;
22774;SDS011;11554;51.106;3.684;2022-12-13T17:55:00;35.40;;;20.10;;
22774;SDS011;11554;51.106;3.684;2022-12-13T18:00:01;34.90;;;20.60;;
22774;SDS011;11554;51.106;3.684;2022-12-13T18:05:00;34.90;;;20.60;;
22774;SDS011;11554;51.106;3.684;2022-12-13T18:10:00;36.90;;;19.90;;
22774;SDS011;11554;51.106;3.684;2022-12-13T18:15:00;36.90;;;19.90;;
22774;SDS011;11554;51.106;3.684;2022-12-13T18:20:00;43.10;;;22.40;;
22774;SDS011;11554;51.106;3.684;2022-12-13T18:25:00;43.10;;;22.40;;
22774;SDS011;11554;51.106;3.684;2022-12-13T18:30:00;41.70;;;21.80;;
22774;SDS011;11554;51.106;3.684;2022-12-13T18:35:00;41.70;;;21.80;;
22774;SDS011;11554;51.106;3.684;2022-12-13T18:40:00;38.80;;;21.50;;
22774;SDS011;11554;51.106;3.684;2022-12-13T18:45:00;38.80;;;21.50;;
22774;SDS011;11554;51.106;3.684;2022-12-13T18:50:00;42.80;;;24.20;;
22774;SDS011;11554;51.106;3.684;2022-12-13T18:55:00;42.80;;;24.20;;
22774;SDS011;11554;51.106;3.684;2022-12-13T19:00:00;48.10;;;24.00;;
22774;SDS011;11554;51.106;3.684;2022-12-13T19:05:00;48.10;;;24.00;;
22774;SDS011;11554;51.106;3.684;2022-12-13T19:10:01;42.50;;;23.00;;
22774;SDS011;11554;51.106;3.684;2022-12-13T19:15:01;42.50;;;23.00;;
22774;SDS011;11554;51.106;3.684;2022-12-13T19:20:00;45.40;;;23.80;;
22774;SDS011;11554;51.106;3.684;2022-12-13T19:25:00;45.40;;;23.80;;
22774;SDS011;11554;51.106;3.684;2022-12-13T19:30:00;46.00;;;24.30;;
22774;SDS011;11554;51.106;3.684;2022-12-13T19:35:00;46.00;;;24.30;;
22774;SDS011;11554;51.106;3.684;2022-12-13T19:40:00;47.40;;;24.20;;
22774;SDS011;11554;51.106;3.684;2022-12-13T19:45:00;47.40;;;24.20;;
22774;SDS011;11554;51.106;3.684;2022-12-13T19:50:00;47.10;;;25.10;;
22774;SDS011;11554;51.106;3.684;2022-12-13T19:55:00;47.10;;;25.10;;
22774;SDS011;11554;51.106;3.684;2022-12-13T20:00:00;45.70;;;25.60;;
22774;SDS011;11554;51.106;3.684;2022-12-13T20:05:00;45.70;;;25.60;;
22774;SDS011;11554;51.106;3.684;2022-12-13T20:10:00;42.80;;;24.50;;
22774;SDS011;11554;51.106;3.684;2022-12-13T20:15:00;42.80;;;24.50;;
22774;SDS011;11554;51.106;3.684;2022-12-13T20:20:00;40.20;;;23.60;;
22774;SDS011;11554;51.106;3.684;2022-12-13T20:25:00;40.20;;;23.60;;
22774;SDS011;11554;51.106;3.684;2022-12-13T20:30:00;44.60;;;25.00;;
22774;SDS011;11554;51.106;3.684;2022-12-13T20:35:00;44.60;;;25.00;;
22774;SDS011;11554;51.106;3.684;2022-12-13T20:40:00;41.20;;;22.90;;
22774;SDS011;11554;51.106;3.684;2022-12-13T20:45:00;41.20;;;22.90;;
22774;SDS011;11554;51.106;3.684;2022-12-13T20:50:00;39.00;;;21.30;;
22774;SDS011;11554;51.106;3.684;2022-12-13T20:55:00;39.00;;;21.30;;
22774;SDS011;11554;51.106;3.684;2022-12-13T21:00:02;39.50;;;21.50;;
22774;SDS011;11554;51.106;3.684;2022-12-13T21:05:00;39.50;;;21.50;;
22774;SDS011;11554;51.106;3.684;2022-12-13T21:10:00;42.20;;;22.50;;
22774;SDS011;11554;51.106;3.684;2022-12-13T21:15:00;42.20;;;22.50;;
22774;SDS011;11554;51.106;3.684;2022-12-13T21:20:00;43.40;;;22.40;;
22774;SDS011;11554;51.106;3.684;2022-12-13T21:25:00;43.40;;;22.40;;
22774;SDS011;11554;51.106;3.684;2022-12-13T21:30:00;38.20;;;21.30;;
22774;SDS011;11554;51.106;3.684;2022-12-13T21:35:00;38.20;;;21.30;;
22774;SDS011;11554;51.106;3.684;2022-12-13T21:40:00;48.80;;;25.10;;
22774;SDS011;11554;51.106;3.684;2022-12-13T21:45:00;48.80;;;25.10;;
22774;SDS011;11554;51.106;3.684;2022-12-13T21:50:00;43.10;;;23.80;;
22774;SDS011;11554;51.106;3.684;2022-12-13T21:55:00;43.10;;;23.80;;
22774;SDS011;11554;51.106;3.684;2022-12-13T22:00:00;38.00;;;20.50;;
22774;SDS011;11554;51.106;3.684;2022-12-13T22:05:00;38.00;;;20.50;;
22774;SDS011;11554;51.106;3.684;2022-12-13T22:10:01;32.80;;;18.20;;
22774;SDS011;11554;51.106;3.684;2022-12-13T22:15:01;32.80;;;18.20;;
22774;SDS011;11554;51.106;3.684;2022-12-13T22:20:00;38.10;;;21.00;;
22774;SDS011;11554;51.106;3.684;2022-12-13T22:25:00;38.10;;;21.00;;
22774;SDS011;11554;51.106;3.684;2022-12-13T22:30:00;43.60;;;21.60;;
22774;SDS011;11554;51.106;3.684;2022-12-13T22:35:00;43.60;;;21.60;;
22774;SDS011;11554;51.106;3.684;2022-12-13T22:40:00;42.80;;;21.00;;
22774;SDS011;11554;51.106;3.684;2022-12-13T22:45:00;42.80;;;21.00;;
22774;SDS011;11554;51.106;3.684;2022-12-13T22:50:00;35.90;;;19.00;;
22774;SDS011;11554;51.106;3.684;2022-12-13T22:55:00;35.90;;;19.00;;
22774;SDS011;11554;51.106;3.684;2022-12-13T23:00:00;34.20;;;18.70;;
22774;SDS011;11554;51.106;3.684;2022-12-13T23:05:01;34.20;;;18.70;;
22774;SDS011;11554;51.106;3.684;2022-12-13T23:10:00;33.30;;;18.20;;
22774;SDS011;11554;51.106;3.684;2022-12-13T23:15:00;33.30;;;18.20;;
22774;SDS011;11554;51.106;3.684;2022-12-13T23:20:01;34.50;;;17.30;;
22774;SDS011;11554;51.106;3.684;2022-12-13T23:25:00;34.50;;;17.30;;
22774;SDS011;11554;51.106;3.684;2022-12-13T23:30:00;37.90;;;18.30;;
22774;SDS011;11554;51.106;3.684;2022-12-13T23:35:00;37.90;;;18.30;;
22774;SDS011;11554;51.106;3.684;2022-12-13T23:40:00;33.60;;;17.90;;
22774;SDS011;11554;51.106;3.684;2022-12-13T23:45:00;33.60;;;17.90;;
22774;SDS011;11554;51.106;3.684;2022-12-13T23:50:00;35.80;;;18.40;;
22774;SDS011;11554;51.106;3.684;2022-12-13T23:55:00;35.80;;;18.40;;
